Jay Michael — WDD2051 — position and weather

sailwx.info

Track history (hours):
 
Tides and Currents Weather Stations Pressure Air Temp Water Temp Dewpoint Dewpoint Depression Visibility Wind Speed Wind Dir Waves Ship Positions

Jay Michael

Owner: Sterling Equipment Inc., Quincy, MA. More information available from US FCC via Universal Licensing System and Coast Guard Vessel Documentation Center.

Last reported at 2016-Sep-25 12:08 UTC. Time now 2016-Sep-26 07:01 UTC.
Position N 42°13' W 070°42'.

Length 21 m; draft 2.5 m.

Type: Tug. MMSI: 367110280.

Date/timePositionNaut miles runAvg speedWind from/ knotsBaromVisibWave heightAir tempDewpointWater temp
2016-Sep-25 12:08N 42°13' W 070°42'5 8.1
2016-Sep-25 11:33N 42°17' W 070°46'7 6.8
2016-Sep-25 10:33N 42°18' W 070°55'1 0.1
2016-Sep-24 19:33N 42°17' W 070°56'8 7.7
2016-Sep-24 18:33N 42°24' W 070°53'9 8.7
2016-Sep-24 17:33N 42°30' W 070°44'9 8.8
2016-Sep-24 16:33N 42°36' W 070°36'13 1.0
2016-Sep-24 03:33N 42°49' W 070°37'3 2.5
2016-Sep-24 02:33N 42°46' W 070°36'3 2.8
2016-Sep-24 01:33N 42°44' W 070°34'3 2.6
2016-Sep-24 00:33N 42°41' W 070°33'15 3.0
2016-Sep-23 19:33N 42°33' W 070°50'2 1.0
2016-Sep-23 17:33N 42°33' W 070°48'8 7.8
2016-Sep-23 16:33N 42°35' W 070°38'7 6.9
2016-Sep-23 15:33N 42°41' W 070°33'15 1.6
2016-Sep-23 06:33N 42°55' W 070°39'6 3.0
2016-Sep-23 04:33N 42°50' W 070°36'3 3.3
2016-Sep-23 03:33N 42°47' W 070°35'3 3.2
2016-Sep-23 02:33N 42°44' W 070°34'4 3.9
2016-Sep-23 01:33N 42°40' W 070°33'4 4.3
2016-Sep-23 00:33N 42°36' W 070°35'4 4.2
2016-Sep-22 23:33N 42°32' W 070°37'15 5.0
2016-Sep-22 20:33N 42°19' W 070°48'138 3.8
2016-Sep-21 08:33N 40°40' W 072°55'56 3.7
2016-Sep-20 17:33N 40°38' W 074°09'1 0.3
2016-Sep-20 14:33N 40°39' W 074°09'0 0.0
2016-Sep-20 13:32N 40°39' W 074°09'1 0.3
2016-Sep-20 10:33N 40°38' W 074°09'0 0.0
2016-Sep-20 08:33N 40°38' W 074°09'0 0.0
2016-Sep-20 07:33N 40°38' W 074°09'0 0.0
2016-Sep-20 06:33N 40°38' W 074°09'0 0.0
2016-Sep-20 02:33N 40°38' W 074°09'0 0.0
2016-Sep-19 23:33N 40°38' W 074°09'1 0.1
2016-Sep-19 19:33N 40°39' W 074°10'2 1.5
2016-Sep-19 18:33N 40°38' W 074°12'0 0.1
2016-Sep-19 16:29N 40°38' W 074°12'2 1.0
2016-Sep-19 14:33N 40°38' W 074°09'0 0.0
2016-Sep-19 13:33N 40°38' W 074°09'0 0.0
2016-Sep-19 12:33N 40°38' W 074°09'0 0.0
2016-Sep-19 11:33N 40°38' W 074°09'0 0.0
2016-Sep-19 09:34N 40°38' W 074°09'0 0.0
2016-Sep-19 07:33N 40°38' W 074°09'0 0.0
2016-Sep-19 06:33N 40°38' W 074°09'0 0.0
2016-Sep-19 03:33N 40°38' W 074°09'0 0.0
2016-Sep-19 02:33N 40°38' W 074°09'0 0.0
2016-Sep-19 00:33N 40°38' W 074°09'0 0.0
2016-Sep-18 19:34N 40°38' W 074°09'2 0.5
2016-Sep-18 15:32N 40°38' W 074°12'2 0.4
2016-Sep-18 10:33N 40°38' W 074°09'0 0.0
2016-Sep-18 09:30N 40°38' W 074°09'0 0.0
2016-Sep-18 02:33N 40°38' W 074°09'0 0.0
2016-Sep-18 01:33N 40°38' W 074°09'0 0.0
2016-Sep-18 00:33N 40°38' W 074°09'0 0.0
2016-Sep-17 22:33N 40°38' W 074°09'0 0.0
2016-Sep-17 21:33N 40°38' W 074°09'0 0.0
2016-Sep-17 20:33N 40°38' W 074°09'2 1.5
2016-Sep-17 19:16N 40°38' W 074°12'0 0.0
2016-Sep-17 13:33N 40°38' W 074°12'0 0.0
2016-Sep-17 12:33N 40°38' W 074°12'2 1.0
2016-Sep-17 10:33N 40°38' W 074°09'0 0.0
2016-Sep-17 09:33N 40°38' W 074°09'0 0.0
2016-Sep-17 08:33N 40°38' W 074°09'0 0.0
2016-Sep-17 07:33N 40°38' W 074°09'0 0.0
2016-Sep-17 05:33N 40°38' W 074°09'0 0.0
2016-Sep-17 04:33N 40°38' W 074°09'0 0.0
2016-Sep-17 00:33N 40°38' W 074°09'2 0.3
2016-Sep-16 17:30N 40°38' W 074°12'0 0.0
2016-Sep-16 15:32N 40°38' W 074°12'0 0.0
2016-Sep-16 12:33N 40°38' W 074°12'2 0.6
2016-Sep-16 09:33N 40°38' W 074°09'2 0.9
2016-Sep-16 07:33N 40°38' W 074°12'  
Track history (hours):
 
Tides and Currents Weather Stations Pressure Air Temp Water Temp Dewpoint Dewpoint Depression Visibility Wind Speed Wind Dir Waves Ship Positions

Jay Michael

Owner: Sterling Equipment Inc., Quincy, MA. More information available from US FCC via Universal Licensing System and Coast Guard Vessel Documentation Center.

Last reported at 2016-Sep-25 12:08 UTC. Time now 2016-Sep-26 07:01 UTC.
Position N 42°13' W 070°42'.

Length 21 m; draft 2.5 m.

Type: Tug. MMSI: 367110280.

Date/timePositionNaut miles runAvg speedWind from/ knotsBaromVisibWave heightAir tempDewpointWater temp
2016-Sep-25 12:08N 42°13' W 070°42'5 8.1
2016-Sep-25 11:33N 42°17' W 070°46'7 6.8
2016-Sep-25 10:33N 42°18' W 070°55'1 0.1
2016-Sep-24 19:33N 42°17' W 070°56'8 7.7
2016-Sep-24 18:33N 42°24' W 070°53'9 8.7
2016-Sep-24 17:33N 42°30' W 070°44'9 8.8
2016-Sep-24 16:33N 42°36' W 070°36'13 1.0
2016-Sep-24 03:33N 42°49' W 070°37'3 2.5
2016-Sep-24 02:33N 42°46' W 070°36'3 2.8
2016-Sep-24 01:33N 42°44' W 070°34'3 2.6
2016-Sep-24 00:33N 42°41' W 070°33'15 3.0
2016-Sep-23 19:33N 42°33' W 070°50'2 1.0
2016-Sep-23 17:33N 42°33' W 070°48'8 7.8
2016-Sep-23 16:33N 42°35' W 070°38'7 6.9
2016-Sep-23 15:33N 42°41' W 070°33'15 1.6
2016-Sep-23 06:33N 42°55' W 070°39'6 3.0
2016-Sep-23 04:33N 42°50' W 070°36'3 3.3
2016-Sep-23 03:33N 42°47' W 070°35'3 3.2
2016-Sep-23 02:33N 42°44' W 070°34'4 3.9
2016-Sep-23 01:33N 42°40' W 070°33'4 4.3
2016-Sep-23 00:33N 42°36' W 070°35'4 4.2
2016-Sep-22 23:33N 42°32' W 070°37'15 5.0
2016-Sep-22 20:33N 42°19' W 070°48'138 3.8
2016-Sep-21 08:33N 40°40' W 072°55'56 3.7
2016-Sep-20 17:33N 40°38' W 074°09'1 0.3
2016-Sep-20 14:33N 40°39' W 074°09'0 0.0
2016-Sep-20 13:32N 40°39' W 074°09'1 0.3
2016-Sep-20 10:33N 40°38' W 074°09'0 0.0
2016-Sep-20 08:33N 40°38' W 074°09'0 0.0
2016-Sep-20 07:33N 40°38' W 074°09'0 0.0
2016-Sep-20 06:33N 40°38' W 074°09'0 0.0
2016-Sep-20 02:33N 40°38' W 074°09'0 0.0
2016-Sep-19 23:33N 40°38' W 074°09'1 0.1
2016-Sep-19 19:33N 40°39' W 074°10'2 1.5
2016-Sep-19 18:33N 40°38' W 074°12'0 0.1
2016-Sep-19 16:29N 40°38' W 074°12'2 1.0
2016-Sep-19 14:33N 40°38' W 074°09'0 0.0
2016-Sep-19 13:33N 40°38' W 074°09'0 0.0
2016-Sep-19 12:33N 40°38' W 074°09'0 0.0
2016-Sep-19 11:33N 40°38' W 074°09'0 0.0
2016-Sep-19 09:34N 40°38' W 074°09'0 0.0
2016-Sep-19 07:33N 40°38' W 074°09'0 0.0
2016-Sep-19 06:33N 40°38' W 074°09'0 0.0
2016-Sep-19 03:33N 40°38' W 074°09'0 0.0
2016-Sep-19 02:33N 40°38' W 074°09'0 0.0
2016-Sep-19 00:33N 40°38' W 074°09'0 0.0
2016-Sep-18 19:34N 40°38' W 074°09'2 0.5
2016-Sep-18 15:32N 40°38' W 074°12'2 0.4
2016-Sep-18 10:33N 40°38' W 074°09'0 0.0
2016-Sep-18 09:30N 40°38' W 074°09'0 0.0
2016-Sep-18 02:33N 40°38' W 074°09'0 0.0
2016-Sep-18 01:33N 40°38' W 074°09'0 0.0
2016-Sep-18 00:33N 40°38' W 074°09'0 0.0
2016-Sep-17 22:33N 40°38' W 074°09'0 0.0
2016-Sep-17 21:33N 40°38' W 074°09'0 0.0
2016-Sep-17 20:33N 40°38' W 074°09'2 1.5
2016-Sep-17 19:16N 40°38' W 074°12'0 0.0
2016-Sep-17 13:33N 40°38' W 074°12'0 0.0
2016-Sep-17 12:33N 40°38' W 074°12'2 1.0
2016-Sep-17 10:33N 40°38' W 074°09'0 0.0
2016-Sep-17 09:33N 40°38' W 074°09'0 0.0
2016-Sep-17 08:33N 40°38' W 074°09'0 0.0
2016-Sep-17 07:33N 40°38' W 074°09'0 0.0
2016-Sep-17 05:33N 40°38' W 074°09'0 0.0
2016-Sep-17 04:33N 40°38' W 074°09'0 0.0
2016-Sep-17 00:33N 40°38' W 074°09'2 0.3
2016-Sep-16 17:30N 40°38' W 074°12'0 0.0
2016-Sep-16 15:32N 40°38' W 074°12'0 0.0
2016-Sep-16 12:33N 40°38' W 074°12'2 0.6
2016-Sep-16 09:33N 40°38' W 074°09'2 0.9
2016-Sep-16 07:33N 40°38' W 074°12'  

Dump ship's entire track history